Redondo, Valles Caldera, New Mexico Weather observations

Data are for 10 minute period ending at time listed.
 Day   Time   Solar   Ave.   Ave.  Ave.  Vector  Max.   Baro.   Total    
  of    of     Rad.   Air    Rel.  Wind   Wind   Wind  Press.  Precip.   
Year   Day            Temp.  Hum.  Speed  Dir.   Gust                    
2014   (MST)  Kw/m2    F      %     mph   deg.    mph    mb.     in.     
-------------------------------------------------------------------------
 298    0:30   0.00   47.5    14    0.1   257     1.8   697.3    0.00 
 298    0:40   0.00   46.0    16    0.0     0     0.0   697.3    0.00 
 298    0:50   0.00   44.4    15    0.0   266     1.2   697.3    0.00 
 298    1:00   0.00   43.7    16    0.0   265     1.2   697.3    0.00 
 298    1:10   0.00   43.9    16    0.4   277     4.2   697.3    0.00 
 298    1:20   0.00   45.4    14    0.5   274     2.4   697.2    0.00 
 298    1:30   0.00   46.0    13    0.1   268     1.8   697.2    0.00 
 298    1:40   0.00   45.4    13    0.0   272     1.2   697.2    0.00 
 298    1:50   0.00   45.1    14    0.1   273     1.8   697.1    0.00 
 298    2:00   0.00   44.2    14    0.0     0     0.0   697.1    0.00 
 298    2:10   0.00   45.2    13    0.2   278     1.8   697.1    0.00 
 298    2:20   0.00   44.7    13    0.0     0     0.0   697.1    0.00 
 298    2:30   0.00   44.7    13    0.1   274     1.8   697.1    0.00 
 298    2:40   0.00   43.9    14    0.1   270     3.0   697.0    0.00 
 298    2:50   0.00   43.7    14    0.2   266     2.4   697.0    0.00 
 298    3:00   0.00   44.4    15    0.1   258     1.8   696.9    0.00 
 298    3:10   0.00   44.1    15    0.1   257     1.8   696.8    0.00 
 298    3:20   0.00   43.6    15    0.1   243     1.8   696.8    0.00 
 298    3:30   0.00   45.5    14    0.7   249     3.0   696.8    0.00 
 298    3:40   0.00   46.1    14    0.2   248     2.4   696.8    0.00 
 298    3:50   0.00   45.4    14    0.2   220     1.8   696.8    0.00 
 298    4:00   0.00   45.3    15    0.4   236     2.4   696.8    0.00 
 298    4:10   0.00   45.0    16    0.2   241     2.4   696.8    0.00 
 298    4:20   0.00   44.7    17    0.4   249     3.0   696.8    0.00 
 298    4:30   0.00   44.9    17    0.3   228     3.6   696.8    0.00 
 298    4:40   0.00   44.9    17    0.2   298     1.8   696.8    0.00 
 298    4:50   0.00   44.0    19    0.7   291     3.0   696.8    0.00 
 298    5:00   0.00   44.7    18    1.1   282     4.2   696.8    0.00 
 298    5:10   0.00   45.9    18    1.4   271     4.8   696.8    0.00 
 298    5:20   0.00   46.5    17    1.0   284     4.2   696.8    0.00 
 298    5:30   0.00   45.8    19    1.0   289     3.6   696.8    0.00 
 298    5:40   0.00   45.4    21    1.0   281     3.6   696.8    0.00 
 298    5:50   0.00   45.3    21    0.8   278     3.6   696.8    0.00 
 298    6:00   0.00   44.8    22    0.7   290     3.6   696.8    0.00 
 298    6:10   0.00   44.7    23    0.7   291     3.0   696.8    0.00 
 298    6:20   0.00   44.3    23    0.7   282     3.6   696.8    0.00 
 298    6:30   0.01   45.9    22    2.1   266     5.4   696.8    0.00 
 298    6:40   0.01   46.2    21    1.5   271     5.4   696.8    0.00 
 298    6:50   0.01   46.1    20    0.9   284     3.0   696.8    0.00 
 298    7:00   0.01   45.6    21    1.1   294     4.2   696.9    0.00 
 298    7:10   0.04   46.2    22    1.9   290     6.0   697.0    0.00 
 298    7:20   0.08   47.0    22    0.9   301     3.0   697.0    0.00 
 298    7:30   0.17   49.1    21    1.7   296     4.2   697.1    0.00 
 298    7:40   0.22   52.0    20    1.8   299     4.2   697.2    0.00 
 298    7:50   0.25   53.7    19    2.1   306     5.4   697.3    0.00 
 298    8:00   0.28   54.7    18    2.1   296     4.8   697.3    0.00 
 298    8:10   0.32   55.1    18    2.1   293     4.8   697.3    0.00 
 298    8:20   0.35   56.2    18    2.0   303     4.2   697.3    0.00 
 298    8:30   0.38   56.5    18    2.2   288     5.4   697.3    0.00 
 298    8:40   0.41   56.8    19    3.2   304     6.0   697.3    0.00 
 298    8:50   0.44   57.6    20    2.6   295     6.6   697.3    0.00 
 298    9:00   0.47   56.0    22    3.7   294     6.6   697.3    0.00 
 298    9:10   0.50   55.9    23    3.2   296     5.4   697.3    0.00 
 298    9:20   0.52   56.7    23    4.0   298     7.2   697.2    0.00 
 298    9:30   0.55   57.0    23    3.5   310     6.0   697.2    0.00 
 298    9:40   0.57   57.3    25    2.6   298     6.0   697.2    0.00 
 298    9:50   0.59   58.2    23    3.1   302     6.6   697.2    0.00 
 298   10:00   0.61   57.6    24    3.1   289     6.6   697.1    0.00 
 298   10:10   0.63   57.2    24    3.5   278     7.2   697.1    0.00 
 298   10:20   0.65   57.0    25    3.4   289     7.8   697.1    0.00 
 298   10:30   0.66   58.4    25    4.3   300     9.0   697.1    0.00 
 298   10:40   0.68   56.7    27    5.0   278    10.2   697.0    0.00 
 298   10:50   0.69   57.1    26    3.9   262     7.8   697.0    0.00 
 298   11:00   0.70   57.5    27    3.6   255     6.6   697.0    0.00 
 298   11:10   0.71   57.8    26    3.1   248     7.8   696.9    0.00 
 298   11:20   0.72   57.5    26    3.6   234     7.8   696.8    0.00 
 298   11:30   0.72   58.2    25    3.1   248     7.2   696.8    0.00 
 298   11:40   0.73   58.6    25    3.8   265     7.8   696.7    0.00 
 298   11:50   0.73   59.3    25    3.5   266     9.0   696.6    0.00 
 298   12:00   0.73   58.7    24    4.5   251    10.8   696.5    0.00 
 298   12:10   0.73   59.0    25    3.9   273    10.8   696.4    0.00 
 298   12:20   0.72   59.1    24    4.3   264     9.6   696.4    0.00 
 298   12:30   0.72   58.4    24    4.7   265     9.6   696.2    0.00 
 298   12:40   0.71   58.3    25    3.4   266     7.8   696.1    0.00 
 298   12:50   0.61   58.2    24    4.3   254     9.6   696.0    0.00 
 298   13:00   0.34   57.6    25    4.6   257    10.2   695.9    0.00 
 298   13:10   0.52   58.3    24    4.2   264    11.3   695.8    0.00 
 298   13:20   0.67   59.4    22    3.9   266     7.8   695.8    0.00 
 298   13:30   0.65   60.3    22    4.1   268    10.2   695.7    0.00 
 298   13:40   0.63   60.4    22    3.4   288     7.2   695.7    0.00 
 298   13:50   0.61   60.8    22    3.8   266     7.8   695.7    0.00 
 298   14:00   0.59   60.1    22    3.8   254    10.8   695.7    0.00 
 298   14:10   0.57   61.1    20    2.8   252     7.2   695.7    0.00 
 298   14:20   0.55   59.7    21    4.5   277    11.9   695.7    0.00 
 298   14:30   0.53   60.4    21    4.2   283     9.0   695.6    0.00 
 298   14:40   0.50   61.3    20    3.6   280     8.4   695.6    0.00 
 298   14:50   0.47   63.0    20    2.8   309     7.8   695.6    0.00 
 298   15:00   0.44   62.8    19    3.5   305    10.2   695.5    0.00 
 298   15:10   0.41   63.3    20    2.9   318     6.6   695.4    0.00 
 298   15:20   0.38   61.4    20    3.9   275     8.4   695.4    0.00 
 298   15:30   0.35   60.2    22    3.1   281     9.6   695.4    0.00 
 298   15:40   0.29   59.6    22    4.1   265    10.8   695.3    0.00 
 298   15:50   0.28   58.2    24    4.3   304     9.6   695.2    0.00 
 298   16:00   0.14   56.7    25    4.2   308     9.6   695.2    0.00 
 298   16:10   0.09   55.5    26    4.7   314    10.2   695.1    0.00 
 298   16:20   0.06   54.8    26    4.1   320    10.8   695.1    0.00 
 298   16:30   0.08   55.4    27    4.5   323     8.4   695.0    0.00 
 298   16:40   0.05   53.7    29    4.6   306    13.1   695.0    0.00 
 298   16:50   0.06   53.5    30    3.9   304     7.8   694.9    0.00 
 298   17:00   0.02   51.2    34    3.0   318     7.8   694.9    0.00 
 298   17:10   0.01   50.1    35    3.6   307     9.6   694.9    0.00 
 298   17:20   0.01   49.5    36    2.9   318     7.8   694.9    0.00 
 298   17:30   0.00   49.2    38    4.1   313     9.0   694.9    0.00 
 298   17:40   0.00   48.7    39    4.0   322     8.4   694.9    0.00 
 298   17:50   0.00   48.3    41    3.6   315     9.0   694.9    0.00 
 298   18:00   0.00   47.9    42    3.4   324     6.6   694.9    0.00 
 298   18:10   0.00   47.5    42    3.7   321     7.8   694.8    0.00 
 298   18:20   0.00   47.4    43    4.3   316    10.2   694.8    0.00 
 298   18:30   0.00   47.4    43    3.8   312     7.2   694.9    0.00 
 298   18:40   0.00   47.2    43    4.4   321     9.6   694.9    0.00 
 298   18:50   0.00   47.1    44    4.3   323     9.6   694.9    0.00 
 298   19:00   0.00   47.0    43    5.3   319    10.8   694.9    0.00 
 298   19:10   0.00   47.3    43    5.0   321    11.9   694.9    0.00 
 298   19:20   0.00   47.0    43    4.9   312    13.1   694.8    0.00 
 298   19:30   0.00   47.0    42    5.5   324    10.8   694.8    0.00 
 298   19:40   0.00   46.7    44    4.9   319    11.3   694.8    0.00 
 298   19:50   0.00   46.6    44    5.6   313    12.5   694.8    0.00 
 298   20:00   0.00   46.3    45    6.1   318    17.3   694.9    0.00 
 298   20:10   0.00   46.4    45    5.8   318    13.1   694.9    0.00 
 298   20:20   0.00   45.9    47    5.3   319    12.5   694.9    0.00 
 298   20:30   0.00   45.6    50    5.9   323    12.5   694.9    0.00 
 298   20:40   0.00   45.7    50    6.1   312    11.3   694.9    0.00 
 298   20:50   0.00   45.5    51    6.3   319    14.3   694.8    0.00 
 298   21:00   0.00   45.2    52    6.3   323    10.8   694.8    0.00 
 298   21:10   0.00   45.0    53    5.8   315    10.8   694.8    0.00 
 298   21:20   0.00   45.0    54    6.2   316    12.5   694.8    0.00 
 298   21:30   0.00   44.8    55    6.1   324    12.5   694.7    0.00 
 298   21:40   0.00   44.8    55    5.8   316    13.1   694.7    0.00 
 298   21:50   0.00   44.6    56    6.1   326    13.1   694.6    0.00 
 298   22:00   0.00   44.5    56    6.1   322    14.3   694.6    0.00 
 298   22:10   0.00   44.2    57    6.3   320    13.1   694.5    0.00 
 298   22:20   0.00   44.2    58    6.3   321    13.1   694.5    0.00 
 298   22:30   0.00   43.9    58    6.3   324    16.7   694.4    0.00 
 298   22:40   0.00   44.0    58    7.3   318    16.7   694.3    0.00 
 298   22:50   0.00   44.1    59    6.9   324    14.3   694.3    0.00 
 298   23:00   0.00   44.0    59    7.3   320    14.3   694.2    0.00 
 298   23:10   0.00   44.1    58    7.3   318    15.5   694.1    0.00 
 298   23:20   0.00   43.9    59    7.5   324    16.7   693.9    0.00 
 298   23:30   0.00   43.6    60    7.5   320    16.1   693.9    0.00 
 298   23:40   0.00   43.9    60    7.3   318    17.9   693.8    0.00 
 298   23:50   0.00   43.9    60    8.2   324    15.5   693.7    0.00 
 299    0:00   0.00   43.8    62    7.3   322    20.3   693.7    0.00 
 299    0:10   0.00   43.9    62    9.2   322    17.9   693.7    0.00 
 299    0:20   0.00   43.7    62    8.1   323    16.1   693.6    0.00 

Return to Redondo, Valles Caldera graphs page.


Western Regional Climate Center,wrcc@dri.edu